Big Sandy, Montana
Current Conditions -  °F | °C
As of 9:53 PM on Saturday 25 Oct 2014 (Local Time) from KHVR Reporting Station
Clear Clear  
Wind Chill:   Ceiling: Unl
Heat Index:   Visibility: 10mi
Dew Point:   Wind: 3mph
Humidity: 71%   Direction: 80°E
Pressure: 29.57"   Gusts: NA
Location:  48.18°N, 110.11°W
Report Text: KHVR 260353Z AUTO 08003KT 10SM CLR 08/03 A2957 RMK AO2 SLP019 T00830033 $
Loading
Personal Weather Stations






























Interactive Weather Map
Tropical Storm Tracking
New forecast layout! Learn more

10-Day Weather Forecast

Advertisements
Track Severe Weather on mobile